createdAt,value
2022-09-21T00:01:27.547Z,2.00
2022-09-21T00:04:02.539Z,1.85
2022-09-21T00:06:31.507Z,2.22
2022-09-21T00:08:58.648Z,2.38
2022-09-21T00:11:28.055Z,2.10
2022-09-21T00:14:00.938Z,2.70
2022-09-21T00:16:29.220Z,2.00
2022-09-21T00:18:56.019Z,1.98
2022-09-21T00:21:23.195Z,2.45
2022-09-21T00:23:50.018Z,2.85
2022-09-21T00:26:21.953Z,1.95
2022-09-21T00:28:56.596Z,2.15
2022-09-21T00:31:24.141Z,2.00
2022-09-21T00:33:51.944Z,2.22
2022-09-21T00:36:21.774Z,2.40
2022-09-21T00:38:57.363Z,2.50
2022-09-21T00:41:25.535Z,2.20
2022-09-21T00:44:23.110Z,2.17
2022-09-21T00:46:53.420Z,2.50
2022-09-21T00:49:21.673Z,2.42
2022-09-21T00:51:49.672Z,2.30
2022-09-21T00:54:27.103Z,2.08
2022-09-21T00:56:55.488Z,2.60
2022-09-21T00:59:26.793Z,2.22
2022-09-21T01:01:56.768Z,2.25
2022-09-21T01:04:24.004Z,2.47
2022-09-21T01:06:51.506Z,2.47
2022-09-21T01:09:19.130Z,2.28
2022-09-21T01:12:02.830Z,2.30
2022-09-21T01:15:07.359Z,2.25
2022-09-21T01:17:51.733Z,2.55
2022-09-21T01:20:42.047Z,2.60
2022-09-21T01:23:31.875Z,2.65
2022-09-21T01:26:04.119Z,2.50
2022-09-21T01:28:56.546Z,2.50
2022-09-21T01:31:29.880Z,2.78
2022-09-21T01:34:02.198Z,2.53
2022-09-21T01:36:31.379Z,2.75
2022-09-21T01:39:07.936Z,2.67
2022-09-21T01:41:36.711Z,2.70
2022-09-21T01:44:09.015Z,2.70
2022-09-21T01:46:37.998Z,2.38
2022-09-21T01:49:15.248Z,2.33
2022-09-21T01:51:47.623Z,2.47
2022-09-21T01:54:40.026Z,2.60
2022-09-21T01:57:29.668Z,2.53
2022-09-21T01:59:59.068Z,2.45
2022-09-21T02:02:51.777Z,2.38
2022-09-21T02:05:21.508Z,2.40
2022-09-21T02:07:50.210Z,2.60
2022-09-21T02:10:40.002Z,2.90
2022-09-21T02:13:08.099Z,2.80
2022-09-21T02:16:04.522Z,2.60
2022-09-21T02:18:48.820Z,2.88
2022-09-21T02:21:25.778Z,2.92
2022-09-21T02:24:22.868Z,2.47
2022-09-21T02:27:11.425Z,2.35
2022-09-21T02:29:57.062Z,2.42
2022-09-21T02:32:51.311Z,2.42
2022-09-21T02:35:38.099Z,2.53
2022-09-21T02:38:29.328Z,2.67
2022-09-21T02:41:10.247Z,2.40
2022-09-21T02:43:49.715Z,2.80
2022-09-21T02:46:37.226Z,2.45
2022-09-21T02:49:19.990Z,3.00
2022-09-21T02:51:52.087Z,2.67
2022-09-21T02:54:22.820Z,2.80
2022-09-21T02:56:51.511Z,3.10
2022-09-21T02:59:18.537Z,2.28
2022-09-21T03:01:45.518Z,2.50
2022-09-21T03:04:12.266Z,2.83
2022-09-21T03:06:39.001Z,2.55
2022-09-21T03:09:05.717Z,2.40
2022-09-21T03:11:33.848Z,2.80
2022-09-21T03:14:00.631Z,2.47
2022-09-21T03:16:27.360Z,2.70
2022-09-21T03:18:54.092Z,2.85
2022-09-21T03:21:22.061Z,2.47
2022-09-21T03:23:48.871Z,3.17
2022-09-21T03:26:15.684Z,2.60
2022-09-21T03:28:42.433Z,2.55
2022-09-21T03:31:09.271Z,2.80
2022-09-21T03:33:36.022Z,2.72
2022-09-21T03:36:02.936Z,2.88
2022-09-21T03:38:29.709Z,2.67
2022-09-21T03:40:58.152Z,2.70
2022-09-21T03:43:25.391Z,3.25
2022-09-21T03:45:52.960Z,2.63
2022-09-21T03:48:19.752Z,2.90
2022-09-21T03:50:46.493Z,3.03
2022-09-21T03:53:13.209Z,2.80
2022-09-21T03:55:40.303Z,3.15
2022-09-21T03:58:07.381Z,2.95
2022-09-21T04:00:34.227Z,2.78
2022-09-21T04:03:02.179Z,2.97
2022-09-21T04:05:29.145Z,2.83
2022-09-21T04:07:56.760Z,2.70
2022-09-21T04:10:33.310Z,3.25
2022-09-21T04:13:04.767Z,2.80
2022-09-21T04:15:31.838Z,2.88
2022-09-21T04:17:59.264Z,3.15
2022-09-21T04:20:37.153Z,2.85
2022-09-21T04:23:04.295Z,2.72
2022-09-21T04:25:30.998Z,2.95
2022-09-21T04:28:03.832Z,3.30
2022-09-21T04:30:43.732Z,2.85
2022-09-21T04:33:11.915Z,3.00
2022-09-21T04:35:39.034Z,3.10
2022-09-21T04:38:23.834Z,2.90
2022-09-21T04:40:58.535Z,3.13
2022-09-21T04:43:45.462Z,2.95
2022-09-21T04:46:20.831Z,2.85
2022-09-21T04:48:48.328Z,2.90
2022-09-21T04:51:16.355Z,3.20
2022-09-21T04:53:44.680Z,2.97
2022-09-21T04:56:14.152Z,3.40
2022-09-21T04:58:41.235Z,2.95
2022-09-21T05:01:08.079Z,3.35
2022-09-21T05:03:35.424Z,3.35
2022-09-21T05:06:02.588Z,3.55
2022-09-21T05:08:48.121Z,3.03
2022-09-21T05:11:19.030Z,2.85
2022-09-21T05:13:46.775Z,2.97
2022-09-21T05:16:14.632Z,3.28
2022-09-21T05:18:41.403Z,3.90
2022-09-21T05:21:09.660Z,3.92
2022-09-21T05:23:36.428Z,3.80
2022-09-21T05:26:03.686Z,3.25
2022-09-21T05:28:30.845Z,3.38
2022-09-21T05:31:17.929Z,3.50
2022-09-21T05:33:52.050Z,3.45
2022-09-21T05:36:45.239Z,3.60
2022-09-21T05:39:12.688Z,3.08
2022-09-21T05:41:39.996Z,3.80
2022-09-21T05:44:07.519Z,3.50
2022-09-21T05:46:56.528Z,3.30
2022-09-21T05:49:38.617Z,3.83
2022-09-21T05:52:28.527Z,3.50
2022-09-21T05:55:13.104Z,3.50
2022-09-21T06:00:19.144Z,3.47
2022-09-21T06:03:17.450Z,3.60
2022-09-21T06:05:44.822Z,3.45
2022-09-21T06:08:11.613Z,4.18
2022-09-21T06:10:38.455Z,3.40
2022-09-21T06:13:05.297Z,3.53
2022-09-21T06:15:38.344Z,3.38
2022-09-21T06:18:06.258Z,4.05
2022-09-21T06:20:33.203Z,3.95
2022-09-21T06:23:11.518Z,3.55
2022-09-21T06:25:38.375Z,4.15
2022-09-21T06:28:08.947Z,3.60
2022-09-21T06:30:36.024Z,3.60
2022-09-21T06:33:06.288Z,3.72
2022-09-21T06:35:34.952Z,3.60
2022-09-21T06:38:04.393Z,3.45
2022-09-21T06:40:32.649Z,4.00
2022-09-21T06:43:01.231Z,3.45
2022-09-21T06:45:29.591Z,4.05
2022-09-21T06:47:56.575Z,3.80
2022-09-21T06:50:23.942Z,4.20
2022-09-21T06:52:50.679Z,3.65
2022-09-21T06:55:17.391Z,3.83
2022-09-21T06:57:44.958Z,3.70
2022-09-21T07:00:13.442Z,3.60
2022-09-21T07:02:44.647Z,3.50
2022-09-21T07:05:11.910Z,3.40
2022-09-21T07:07:38.812Z,3.30
2022-09-21T07:10:12.084Z,3.38
2022-09-21T07:12:41.755Z,3.50
2022-09-21T07:15:10.549Z,3.45
2022-09-21T07:17:39.313Z,3.22
2022-09-21T07:20:08.106Z,3.63
2022-09-21T07:22:35.759Z,3.60
2022-09-21T07:25:04.409Z,3.22
2022-09-21T07:27:32.778Z,3.40
2022-09-21T07:29:59.511Z,3.72
2022-09-21T07:32:26.317Z,3.40
2022-09-21T07:34:56.519Z,3.67
2022-09-21T07:37:27.357Z,3.58
2022-09-21T07:39:54.315Z,3.28
2022-09-21T07:42:22.806Z,3.05
2022-09-21T07:44:51.076Z,3.20
2022-09-21T07:47:18.167Z,3.33
2022-09-21T07:49:45.826Z,3.50
2022-09-21T07:52:12.565Z,3.65
2022-09-21T07:54:39.370Z,3.33
2022-09-21T07:57:24.832Z,3.75
2022-09-21T07:59:51.730Z,3.55
2022-09-21T08:02:18.591Z,3.95
2022-09-21T08:04:45.337Z,3.42
2022-09-21T08:07:12.574Z,4.00
2022-09-21T08:09:39.346Z,4.30
2022-09-21T08:12:06.376Z,4.10
2022-09-21T08:14:33.633Z,3.45
2022-09-21T08:17:00.370Z,3.67
2022-09-21T08:19:27.657Z,3.70
2022-09-21T08:21:57.449Z,3.25
2022-09-21T08:24:26.679Z,3.35
2022-09-21T08:26:55.801Z,3.80
2022-09-21T08:29:23.382Z,3.17
2022-09-21T08:31:50.157Z,3.22
2022-09-21T08:34:16.915Z,3.15
2022-09-21T08:36:44.034Z,3.60
2022-09-21T08:39:10.808Z,3.20
2022-09-21T08:41:43.341Z,3.13
2022-09-21T08:44:42.546Z,3.13
2022-09-21T08:47:35.824Z,2.97
2022-09-21T08:50:05.184Z,2.83
2022-09-21T08:52:32.967Z,3.15
2022-09-21T08:55:13.069Z,2.80
2022-09-21T08:57:42.154Z,2.97
2022-09-21T09:00:18.732Z,3.35
2022-09-21T09:03:08.671Z,2.88
2022-09-21T09:05:44.228Z,2.88
2022-09-21T09:08:19.800Z,3.20
2022-09-21T09:11:05.369Z,2.47
2022-09-21T09:13:48.582Z,3.00
2022-09-21T09:16:24.321Z,2.80
2022-09-21T09:18:54.179Z,3.10
2022-09-21T09:21:30.540Z,3.00
2022-09-21T09:24:05.264Z,2.88
2022-09-21T09:26:47.570Z,2.77
2022-09-21T09:29:33.912Z,2.40
2022-09-21T09:32:01.774Z,2.67
2022-09-21T09:34:36.435Z,2.83
2022-09-21T09:37:14.353Z,2.92
2022-09-21T09:39:42.653Z,2.65
2022-09-21T09:42:24.604Z,2.45
2022-09-21T09:45:00.685Z,2.88
2022-09-21T09:47:57.318Z,3.47
2022-09-21T09:50:29.224Z,2.90
2022-09-21T09:53:12.216Z,2.70
2022-09-21T09:55:43.919Z,2.88
2022-09-21T09:58:24.168Z,3.05
2022-09-21T10:00:55.516Z,2.58
2022-09-21T10:03:25.013Z,2.67
2022-09-21T10:05:52.697Z,3.00
2022-09-21T10:08:44.546Z,3.45
2022-09-21T10:11:16.143Z,3.00
2022-09-21T10:13:46.081Z,3.15
2022-09-21T10:16:23.253Z,3.50
2022-09-21T10:19:01.861Z,2.80
2022-09-21T10:21:37.357Z,2.95
2022-09-21T10:24:25.881Z,3.17
2022-09-21T10:26:56.454Z,3.35
2022-09-21T10:29:23.294Z,3.10
2022-09-21T10:32:02.922Z,2.80
2022-09-21T10:34:34.290Z,2.85
2022-09-21T10:37:22.561Z,3.40
2022-09-21T10:39:49.387Z,3.22
2022-09-21T10:42:18.882Z,3.13
2022-09-21T10:44:51.100Z,3.55
2022-09-21T10:47:19.936Z,3.20
2022-09-21T10:49:55.234Z,3.03
2022-09-21T10:52:36.319Z,3.83
2022-09-21T10:55:03.346Z,3.22
2022-09-21T10:57:32.585Z,3.30
2022-09-21T11:00:11.893Z,3.33
2022-09-21T11:02:39.173Z,3.83
2022-09-21T11:05:28.243Z,3.30
2022-09-21T11:08:05.143Z,3.50
2022-09-21T11:10:53.764Z,2.88
2022-09-21T11:13:34.990Z,3.08
2022-09-21T11:16:25.028Z,3.25
2022-09-21T11:18:57.753Z,3.55
2022-09-21T11:21:30.194Z,2.88
2022-09-21T11:24:30.671Z,2.83
2022-09-21T11:27:06.971Z,2.88
2022-09-21T11:29:45.771Z,3.00
2022-09-21T11:32:44.760Z,3.58
2022-09-21T11:35:17.419Z,3.10
2022-09-21T11:37:57.865Z,3.25
2022-09-21T11:40:29.793Z,3.58
2022-09-21T11:43:02.136Z,2.90
2022-09-21T11:45:54.799Z,2.72
2022-09-21T11:48:43.554Z,3.00
2022-09-21T11:51:38.460Z,2.97
2022-09-21T11:54:28.779Z,3.38
2022-09-21T11:57:09.345Z,3.53
2022-09-21T12:00:03.053Z,2.88
2022-09-21T12:02:42.866Z,3.22
2022-09-21T12:05:29.606Z,3.17
2022-09-21T12:08:10.467Z,2.80
2022-09-21T12:10:48.192Z,2.85
2022-09-21T12:13:22.272Z,2.83
2022-09-21T12:16:06.963Z,3.40
2022-09-21T12:18:48.223Z,2.60
2022-09-21T12:21:24.166Z,2.95
2022-09-21T12:24:01.796Z,3.25
2022-09-21T12:26:48.236Z,3.42
2022-09-21T12:29:25.392Z,3.63
2022-09-21T12:32:03.727Z,3.35
2022-09-21T12:34:42.412Z,3.30
2022-09-21T12:37:18.911Z,3.40
2022-09-21T12:40:03.444Z,3.20
2022-09-21T12:42:46.835Z,3.30
2022-09-21T12:45:28.602Z,3.43
2022-09-21T12:48:14.860Z,3.53
2022-09-21T12:50:52.304Z,3.35
2022-09-21T12:53:24.177Z,3.03
2022-09-21T12:56:09.695Z,3.63
2022-09-21T12:58:58.168Z,3.30
2022-09-21T13:01:29.915Z,2.75
2022-09-21T13:04:18.785Z,3.33
2022-09-21T13:07:00.939Z,3.45
2022-09-21T13:09:29.841Z,3.15
2022-09-21T13:12:06.549Z,3.63
2022-09-21T13:14:36.411Z,3.00
2022-09-21T13:17:05.727Z,3.25
2022-09-21T13:19:35.219Z,3.22
2022-09-21T13:22:19.888Z,2.85
2022-09-21T13:25:01.362Z,3.15
2022-09-21T13:27:58.098Z,2.90
2022-09-21T13:30:38.885Z,3.10
2022-09-21T13:33:25.654Z,3.17
2022-09-21T13:36:02.316Z,3.05
2022-09-21T13:38:41.315Z,3.30
2022-09-21T13:41:19.821Z,2.95
2022-09-21T13:44:01.280Z,2.60
2022-09-21T13:46:37.092Z,2.60
2022-09-21T13:49:10.546Z,2.60
2022-09-21T13:52:07.333Z,2.38
2022-09-21T13:54:56.633Z,2.60
2022-09-21T13:57:36.908Z,2.28
2022-09-21T14:00:12.997Z,2.70
2022-09-21T14:02:45.531Z,2.30
2022-09-21T14:05:31.755Z,2.47
2022-09-21T14:08:16.286Z,2.58
2022-09-21T14:11:08.134Z,2.58
2022-09-21T14:13:43.870Z,2.67
2022-09-21T14:16:37.383Z,2.20
2022-09-21T14:19:26.872Z,2.30
2022-09-21T14:22:08.944Z,2.28
2022-09-21T14:24:51.319Z,2.20
2022-09-21T14:27:23.630Z,2.08
2022-09-21T14:29:55.483Z,2.25
2022-09-21T14:32:28.407Z,1.73
2022-09-21T14:35:06.507Z,2.00
2022-09-21T14:37:44.911Z,2.40
2022-09-21T14:40:26.535Z,1.65
2022-09-21T14:43:00.494Z,1.90
2022-09-21T14:48:41.960Z,1.90
2022-09-21T14:51:38.167Z,1.80
2022-09-21T14:54:17.793Z,1.90
2022-09-21T14:57:09.416Z,1.67
2022-09-21T14:59:54.470Z,1.58
2022-09-21T15:02:27.346Z,1.60
2022-09-21T15:05:16.094Z,1.95
2022-09-21T15:08:07.106Z,1.85
2022-09-21T15:10:57.951Z,1.60
2022-09-21T15:13:36.298Z,1.40
2022-09-21T15:16:09.113Z,2.00
2022-09-21T15:18:41.766Z,1.55
2022-09-21T15:21:27.797Z,1.58
2022-09-21T15:23:55.062Z,1.55
2022-09-21T15:26:33.203Z,1.50
2022-09-21T15:29:09.627Z,1.55
2022-09-21T15:31:45.617Z,1.77
2022-09-21T15:34:15.169Z,1.73
2022-09-21T15:36:43.614Z,1.95
2022-09-21T15:39:29.562Z,1.40
2022-09-21T15:42:17.940Z,1.80
2022-09-21T15:44:48.595Z,1.75
2022-09-21T15:47:20.009Z,1.50
2022-09-21T15:49:47.059Z,1.55
2022-09-21T15:52:27.331Z,1.73
2022-09-21T15:55:22.599Z,1.70
2022-09-21T15:57:52.239Z,1.30
2022-09-21T16:00:25.822Z,1.90
2022-09-21T16:03:04.940Z,1.80
2022-09-21T16:05:45.517Z,1.70
2022-09-21T16:08:28.601Z,1.70
2022-09-21T16:11:26.266Z,1.52
2022-09-21T16:14:33.654Z,1.60
2022-09-21T16:17:09.491Z,1.40
2022-09-21T16:19:51.102Z,1.85
2022-09-21T16:22:28.054Z,1.67
2022-09-21T16:24:56.975Z,1.50
2022-09-21T16:27:27.148Z,1.40
2022-09-21T16:29:55.117Z,1.60
2022-09-21T16:32:31.691Z,1.55
2022-09-21T16:35:31.562Z,1.50
2022-09-21T16:37:59.025Z,1.45
2022-09-21T16:40:27.561Z,1.52
2022-09-21T16:42:57.509Z,1.55
2022-09-21T16:45:31.838Z,1.30
2022-09-21T16:47:59.494Z,1.40
2022-09-21T16:50:26.262Z,1.30
2022-09-21T16:52:52.994Z,1.70
2022-09-21T16:55:21.159Z,1.40
2022-09-21T16:57:49.487Z,1.60
2022-09-21T17:00:20.794Z,1.60
2022-09-21T17:02:48.657Z,1.45
2022-09-21T17:05:19.299Z,1.25
2022-09-21T17:07:57.675Z,1.42
2022-09-21T17:10:29.248Z,1.20
2022-09-21T17:12:56.800Z,1.42
2022-09-21T17:15:24.391Z,1.60
2022-09-21T17:17:51.443Z,1.33
2022-09-21T17:20:36.584Z,1.30
2022-09-21T17:23:03.517Z,1.40
2022-09-21T17:25:32.826Z,1.30
2022-09-21T17:28:01.078Z,1.20
2022-09-21T17:30:28.377Z,1.40
2022-09-21T17:32:55.979Z,1.30
2022-09-21T17:35:34.073Z,1.45
2022-09-21T17:38:00.857Z,1.67
2022-09-21T17:40:27.944Z,1.35
2022-09-21T17:43:05.170Z,1.30
2022-09-21T17:45:38.927Z,1.50
2022-09-21T17:48:17.346Z,1.60
2022-09-21T17:50:44.315Z,1.20
2022-09-21T17:53:31.223Z,1.27
2022-09-21T17:56:00.247Z,1.80
2022-09-21T17:58:48.817Z,1.30
2022-09-21T18:01:38.583Z,1.40
2022-09-21T18:04:06.835Z,1.38
2022-09-21T18:06:34.326Z,1.60
2022-09-21T18:09:01.760Z,1.38
2022-09-21T18:11:51.236Z,1.45
2022-09-21T18:14:44.669Z,1.70
2022-09-21T18:17:39.357Z,2.17
2022-09-21T18:20:06.400Z,1.60
2022-09-21T18:22:54.198Z,1.55
2022-09-21T18:25:32.248Z,1.60
2022-09-21T18:28:04.363Z,1.58
2022-09-21T18:30:31.837Z,1.63
2022-09-21T18:33:21.134Z,1.50
2022-09-21T18:36:15.644Z,1.45
2022-09-21T18:38:56.834Z,1.73
2022-09-21T18:41:40.688Z,1.63
2022-09-21T18:44:25.872Z,1.92
2022-09-21T18:47:15.700Z,1.80
2022-09-21T18:50:10.128Z,2.65
2022-09-21T18:52:50.439Z,2.28
2022-09-21T18:55:27.069Z,2.00
2022-09-21T18:57:55.718Z,1.35
2022-09-21T19:00:23.857Z,1.60
2022-09-21T19:03:12.793Z,1.30
2022-09-21T19:05:59.366Z,1.30
2022-09-21T19:08:38.760Z,1.48
2022-09-21T19:11:16.057Z,1.60
2022-09-21T19:13:48.728Z,1.60
2022-09-21T19:16:34.310Z,1.60
2022-09-21T19:19:18.534Z,1.65
2022-09-21T19:22:11.757Z,1.50
2022-09-21T19:24:56.059Z,1.73
2022-09-21T19:27:34.775Z,1.98
2022-09-21T19:30:07.151Z,1.88
2022-09-21T19:32:45.051Z,1.60
2022-09-21T19:35:18.893Z,1.70
2022-09-21T19:37:50.059Z,1.63
2022-09-21T19:40:18.893Z,2.05
2022-09-21T19:43:13.715Z,1.50
2022-09-21T19:48:14.821Z,1.60
2022-09-21T19:50:54.642Z,1.58
2022-09-21T19:53:43.727Z,1.40
2022-09-21T19:56:35.802Z,1.55
2022-09-21T19:59:21.043Z,1.35
2022-09-21T20:01:55.853Z,1.50
2022-09-21T20:04:27.491Z,1.58
2022-09-21T20:06:59.547Z,1.52
2022-09-21T20:09:39.343Z,1.60
2022-09-21T20:12:23.579Z,1.40
2022-09-21T20:15:11.894Z,1.73
2022-09-21T20:18:01.843Z,1.42
2022-09-21T20:20:30.101Z,1.77
2022-09-21T20:22:57.158Z,1.40
2022-09-21T20:25:31.249Z,1.48
2022-09-21T20:27:58.523Z,1.50
2022-09-21T20:30:28.429Z,1.70
2022-09-21T20:32:59.021Z,1.80
2022-09-21T20:35:30.282Z,1.60
2022-09-21T20:38:01.942Z,1.50
2022-09-21T20:40:31.181Z,1.50
2022-09-21T20:42:58.433Z,1.55
2022-09-21T20:45:25.648Z,2.00
2022-09-21T20:47:54.736Z,2.13
2022-09-21T20:50:22.123Z,1.92
2022-09-21T20:52:48.837Z,1.80
2022-09-21T20:55:17.471Z,1.67
2022-09-21T20:57:44.725Z,1.80
2022-09-21T21:00:14.493Z,1.55
2022-09-21T21:02:42.133Z,1.70
2022-09-21T21:05:11.262Z,1.80
2022-09-21T21:07:40.262Z,1.95
2022-09-21T21:10:07.225Z,1.88
2022-09-21T21:12:33.949Z,1.67
2022-09-21T21:15:00.673Z,1.90
2022-09-21T21:17:27.367Z,1.98
2022-09-21T21:19:54.090Z,1.70
2022-09-21T21:22:20.809Z,1.73
2022-09-21T21:24:48.086Z,1.73
2022-09-21T21:27:17.702Z,1.90
2022-09-21T21:29:50.126Z,1.77
2022-09-21T21:32:19.221Z,2.03
2022-09-21T21:34:46.482Z,1.60
2022-09-21T21:37:14.303Z,2.00
2022-09-21T21:39:41.027Z,1.70
2022-09-21T21:42:08.365Z,2.35
2022-09-21T21:44:35.108Z,1.70
2022-09-21T21:47:15.377Z,1.70
2022-09-21T21:49:48.702Z,1.90
2022-09-21T21:52:15.627Z,1.75
2022-09-21T21:54:42.337Z,1.60
2022-09-21T21:57:10.076Z,2.10
2022-09-21T21:59:37.122Z,2.00
2022-09-21T22:02:04.412Z,1.98
2022-09-21T22:04:31.503Z,2.08
2022-09-21T22:06:58.213Z,2.10
2022-09-21T22:09:24.986Z,1.90
2022-09-21T22:11:52.042Z,2.30
2022-09-21T22:14:18.926Z,2.10
2022-09-21T22:16:45.785Z,2.30
2022-09-21T22:19:12.531Z,3.67
2022-09-21T22:21:42.414Z,2.13
2022-09-21T22:24:09.780Z,2.67
2022-09-21T22:26:39.631Z,2.35
2022-09-21T22:29:09.487Z,2.15
2022-09-21T22:31:39.413Z,1.92
2022-09-21T22:34:07.603Z,2.28
2022-09-21T22:36:36.008Z,2.25
2022-09-21T22:39:04.311Z,2.50
2022-09-21T22:41:34.298Z,2.20
2022-09-21T22:44:01.247Z,2.40
2022-09-21T22:46:29.321Z,2.10
2022-09-21T22:48:56.065Z,2.22
2022-09-21T22:51:22.957Z,2.15
2022-09-21T22:53:50.799Z,2.22
2022-09-21T22:56:20.172Z,2.13
2022-09-21T22:58:52.762Z,2.67
2022-09-21T23:01:20.915Z,2.53
2022-09-21T23:03:51.027Z,2.15
2022-09-21T23:06:20.059Z,2.28
2022-09-21T23:08:51.802Z,2.20
2022-09-21T23:11:21.868Z,2.28
2022-09-21T23:13:49.472Z,2.17
2022-09-21T23:16:17.269Z,2.80
2022-09-21T23:18:44.835Z,2.40
2022-09-21T23:21:14.276Z,2.13
2022-09-21T23:23:42.107Z,2.35
2022-09-21T23:26:08.812Z,2.30
2022-09-21T23:28:36.578Z,2.60
2022-09-21T23:31:06.056Z,2.00
2022-09-21T23:33:38.382Z,2.45
2022-09-21T23:36:07.337Z,1.85
2022-09-21T23:38:34.809Z,2.45
2022-09-21T23:41:13.215Z,2.60
2022-09-21T23:43:41.568Z,2.30
2022-09-21T23:46:10.996Z,2.28
2022-09-21T23:48:38.628Z,2.30
2022-09-21T23:51:05.833Z,2.55
2022-09-21T23:53:32.889Z,2.15
2022-09-21T23:55:59.865Z,2.40
2022-09-21T23:58:27.310Z,2.20
